Kamloops Airport


Codes: CYKA/YKA
Name: Kamloops Airport
City: Kamloops
Country: Canada
Elevation: 1133 ft.
Wikipedia:

Photos at Kamloops Airport


   Photos courtesy of SpottingLog. You can add your own sightings and photos by signing up for a free trial today.



No photos found.

Weather at Kamloops Airport


Time (UTC)DescriptionTempratureWindCloud coverageVisibilityPressureHumidity
26-Jun-2024 00:00Scattered Clouds27°C2 mph, NE43%10000m1015hPa30%
26-Jun-2024 03:00Broken Clouds24°C2 mph, NE78%10000m1013hPa38%
26-Jun-2024 06:00Overcast Clouds19°C2 mph, E100%10000m1011hPa47%
26-Jun-2024 09:00Overcast Clouds16°C2 mph, E100%10000m1011hPa53%
26-Jun-2024 12:00Overcast Clouds15°C2 mph, E100%10000m1010hPa57%
26-Jun-2024 15:00Overcast Clouds19°C0 mph, E100%10000m1008hPa48%
26-Jun-2024 18:00Overcast Clouds23°C0 mph, SE100%10000m1006hPa40%
26-Jun-2024 21:00Overcast Clouds26°C2 mph, SE100%10000m1005hPa35%
27-Jun-2024 00:00Light Rain18°C7 mph, SE100%10000m1007hPa81%
27-Jun-2024 03:00Light Rain16°C4 mph, E100%10000m1007hPa92%
27-Jun-2024 06:00Light Rain14°C2 mph, SE100%10000m1007hPa92%
27-Jun-2024 09:00Overcast Clouds13°C2 mph, SE100%10000m1007hPa91%
27-Jun-2024 12:00Light Rain13°C0 mph, S100%10000m1007hPa92%
27-Jun-2024 15:00Moderate Rain13°C2 mph, W100%4654m1008hPa95%
27-Jun-2024 18:00Moderate Rain12°C2 mph, W100%8916m1010hPa94%
27-Jun-2024 21:00Light Rain12°C2 mph, W100%10000m1013hPa94%
28-Jun-2024 00:00Light Rain12°C2 mph, W100%10000m1014hPa94%
28-Jun-2024 03:00Light Rain12°C2 mph, W100%10000m1015hPa95%
28-Jun-2024 06:00Light Rain12°C0 mph, S100%10000m1016hPa95%
28-Jun-2024 09:00Overcast Clouds12°C2 mph, NE98%10000m1017hPa95%
28-Jun-2024 12:00Overcast Clouds10°C2 mph, E99%10000m1018hPa97%
28-Jun-2024 15:00Overcast Clouds14°C2 mph, E99%10000m1017hPa86%
28-Jun-2024 18:00Overcast Clouds19°C2 mph, SE99%10000m1016hPa58%
28-Jun-2024 21:00Overcast Clouds24°C2 mph, E100%10000m1013hPa39%
29-Jun-2024 00:00Overcast Clouds22°C2 mph, E100%10000m1012hPa53%
29-Jun-2024 03:00Overcast Clouds21°C2 mph, SE94%10000m1012hPa56%
29-Jun-2024 06:00Overcast Clouds16°C0 mph, N87%10000m1013hPa73%
29-Jun-2024 09:00Overcast Clouds14°C0 mph, E96%10000m1013hPa76%
29-Jun-2024 12:00Overcast Clouds14°C0 mph, SE98%10000m1013hPa76%
29-Jun-2024 15:00Overcast Clouds17°C0 mph, E100%10000m1013hPa67%
29-Jun-2024 18:00Light Rain19°C2 mph, NW100%10000m1012hPa66%
29-Jun-2024 21:00Light Rain19°C2 mph, NW100%10000m1012hPa71%
30-Jun-2024 00:00Light Rain22°C4 mph, E100%10000m1011hPa52%
30-Jun-2024 03:00Light Rain19°C4 mph, E97%10000m1011hPa73%
30-Jun-2024 06:00Light Rain15°C0 mph, NE90%10000m1012hPa91%
30-Jun-2024 09:00Broken Clouds14°C2 mph, SW56%10000m1012hPa92%
30-Jun-2024 12:00Scattered Clouds12°C2 mph, SW43%10000m1012hPa93%
30-Jun-2024 15:00Overcast Clouds17°C0 mph, SE86%10000m1012hPa75%
30-Jun-2024 18:00Broken Clouds24°C2 mph, E68%10000m1009hPa46%
30-Jun-2024 21:00Broken Clouds24°C4 mph, E76%10000m1008hPa43%